createdAt,value
2017-10-20T00:00:11.854Z,0
2017-10-20T00:01:20.853Z,0
2017-10-20T00:02:30.527Z,0
2017-10-20T00:03:39.197Z,0
2017-10-20T00:04:47.877Z,0
2017-10-20T00:05:56.548Z,0
2017-10-20T00:07:05.540Z,0
2017-10-20T00:08:14.213Z,0
2017-10-20T00:09:23.552Z,0
2017-10-20T00:10:32.239Z,0
2017-10-20T00:11:41.958Z,0
2017-10-20T00:12:51.273Z,0
2017-10-20T00:14:01.256Z,0
2017-10-20T00:15:10.242Z,0
2017-10-20T00:16:18.909Z,0
2017-10-20T00:17:27.592Z,0
2017-10-20T00:18:36.903Z,0
2017-10-20T00:19:45.579Z,0
2017-10-20T00:20:54.571Z,0
2017-10-20T00:22:03.550Z,0
2017-10-20T00:23:12.862Z,0
2017-10-20T00:24:22.514Z,0
2017-10-20T00:25:32.172Z,0
2017-10-20T00:26:40.838Z,0
2017-10-20T00:27:50.541Z,0
2017-10-20T00:29:00.227Z,0
2017-10-20T00:30:09.581Z,0
2017-10-20T00:31:19.545Z,0
2017-10-20T00:32:28.885Z,0
2017-10-20T00:33:37.554Z,0
2017-10-20T00:34:46.205Z,0
2017-10-20T00:35:55.206Z,0
2017-10-20T00:37:04.513Z,0
2017-10-20T00:38:13.497Z,0
2017-10-20T00:39:22.845Z,0
2017-10-20T00:40:32.177Z,0
2017-10-20T00:41:41.177Z,0
2017-10-20T00:42:50.495Z,0
2017-10-20T00:43:59.159Z,0
2017-10-20T00:45:07.833Z,0
2017-10-20T00:46:17.247Z,0
2017-10-20T00:47:26.548Z,0
2017-10-20T00:48:35.869Z,0
2017-10-20T00:49:44.840Z,0
2017-10-20T00:50:54.151Z,0
2017-10-20T00:52:03.892Z,0
2017-10-20T00:53:12.544Z,0
2017-10-20T00:54:22.193Z,0
2017-10-20T00:55:30.862Z,0
2017-10-20T00:56:40.200Z,0
2017-10-20T00:57:48.954Z,0
2017-10-20T00:58:58.265Z,0
2017-10-20T01:00:07.139Z,0
2017-10-20T01:01:16.130Z,0
2017-10-20T01:02:25.794Z,0
2017-10-20T01:03:35.202Z,0
2017-10-20T01:04:43.848Z,0
2017-10-20T01:05:53.163Z,0
2017-10-20T01:07:02.554Z,0
2017-10-20T01:08:11.865Z,0
2017-10-20T01:09:20.906Z,0
2017-10-20T01:10:29.900Z,0
2017-10-20T01:11:38.559Z,0
2017-10-20T01:12:47.568Z,0
2017-10-20T01:13:56.885Z,0
2017-10-20T01:15:05.872Z,0
2017-10-20T01:16:14.513Z,0
2017-10-20T01:17:23.828Z,0
2017-10-20T01:18:33.143Z,0
2017-10-20T01:19:42.138Z,0
2017-10-20T01:20:51.456Z,0
2017-10-20T01:22:00.464Z,0
2017-10-20T01:23:10.497Z,0
2017-10-20T01:24:19.806Z,0
2017-10-20T01:25:29.455Z,0
2017-10-20T01:26:38.436Z,0
2017-10-20T01:27:47.823Z,0
2017-10-20T01:28:56.492Z,0
2017-10-20T01:30:05.808Z,0
2017-10-20T01:31:14.510Z,0
2017-10-20T01:32:24.169Z,0
2017-10-20T01:33:33.159Z,0
2017-10-20T01:34:41.819Z,0
2017-10-20T01:35:50.879Z,0
2017-10-20T01:36:59.853Z,0
2017-10-20T01:38:08.872Z,0
2017-10-20T01:39:17.531Z,0
2017-10-20T01:40:26.548Z,0
2017-10-20T01:41:35.531Z,0
2017-10-20T01:42:44.514Z,0
2017-10-20T01:43:53.510Z,0
2017-10-20T01:45:02.178Z,0
2017-10-20T01:46:11.510Z,0
2017-10-20T01:47:20.176Z,0
2017-10-20T01:48:29.495Z,0
2017-10-20T01:49:38.884Z,0
2017-10-20T01:50:47.892Z,0
2017-10-20T01:51:56.874Z,0
2017-10-20T01:53:06.201Z,0
2017-10-20T01:54:16.174Z,0
2017-10-20T01:55:24.936Z,0
2017-10-20T01:56:33.594Z,0
2017-10-20T01:57:42.912Z,0
2017-10-20T01:58:51.906Z,0
2017-10-20T02:00:01.245Z,0
2017-10-20T02:01:09.923Z,0
2017-10-20T02:02:18.902Z,0
2017-10-20T02:03:28.234Z,0
2017-10-20T02:04:37.221Z,0
2017-10-20T02:05:46.551Z,0
2017-10-20T02:06:55.539Z,0
2017-10-20T02:08:04.879Z,0
2017-10-20T02:09:14.180Z,0
2017-10-20T02:10:22.853Z,0
2017-10-20T02:11:32.179Z,0
2017-10-20T02:12:41.496Z,0
2017-10-20T02:13:50.157Z,0
2017-10-20T02:14:59.142Z,0
2017-10-20T02:16:08.128Z,0
2017-10-20T02:17:17.111Z,0
2017-10-20T02:18:26.190Z,0
2017-10-20T02:19:35.207Z,0
2017-10-20T02:20:44.517Z,0
2017-10-20T02:21:53.828Z,0
2017-10-20T02:23:03.147Z,0
2017-10-20T02:24:12.133Z,0
2017-10-20T02:25:21.124Z,0
2017-10-20T02:26:29.795Z,0
2017-10-20T02:27:39.140Z,0
2017-10-20T02:28:48.456Z,0
2017-10-20T02:29:58.112Z,0
2017-10-20T02:31:07.427Z,0
2017-10-20T02:32:16.745Z,0
2017-10-20T02:33:25.754Z,0
2017-10-20T02:34:34.741Z,0
2017-10-20T02:35:43.752Z,0
2017-10-20T02:36:53.080Z,0
2017-10-20T02:38:02.423Z,0
2017-10-20T02:39:12.081Z,0
2017-10-20T02:40:21.084Z,0
2017-10-20T02:41:29.831Z,0
2017-10-20T02:42:39.155Z,0
2017-10-20T02:43:48.462Z,0
2017-10-20T02:44:57.453Z,0
2017-10-20T02:46:06.450Z,0
2017-10-20T02:47:15.772Z,0
2017-10-20T02:48:24.469Z,0
2017-10-20T02:49:34.105Z,0
2017-10-20T02:50:43.738Z,0
2017-10-20T02:51:53.041Z,0
2017-10-20T02:53:02.698Z,0
2017-10-20T02:54:11.353Z,0
2017-10-20T02:55:20.352Z,0
2017-10-20T02:56:29.047Z,0
2017-10-20T02:57:38.028Z,0
2017-10-20T02:58:47.000Z,0
2017-10-20T02:59:55.983Z,0
2017-10-20T03:01:05.288Z,0
2017-10-20T03:02:14.297Z,0
2017-10-20T03:03:23.315Z,0
2017-10-20T03:04:32.635Z,0
2017-10-20T03:05:41.632Z,0
2017-10-20T03:06:51.608Z,0
2017-10-20T03:08:00.589Z,0
2017-10-20T03:09:09.251Z,0
2017-10-20T03:10:18.553Z,0
2017-10-20T03:11:27.868Z,0
2017-10-20T03:12:36.855Z,0
2017-10-20T03:13:45.511Z,0
2017-10-20T03:14:54.513Z,0
2017-10-20T03:16:03.530Z,0
2017-10-20T03:17:12.507Z,0
2017-10-20T03:18:21.173Z,0
2017-10-20T03:19:29.822Z,0
2017-10-20T03:20:38.476Z,0
2017-10-20T03:21:47.470Z,0
2017-10-20T03:22:56.139Z,0
2017-10-20T03:24:05.125Z,0
2017-10-20T03:25:14.124Z,0
2017-10-20T03:26:22.772Z,0
2017-10-20T03:27:31.869Z,0
2017-10-20T03:28:40.521Z,0
2017-10-20T03:29:49.184Z,0
2017-10-20T03:30:58.170Z,0
2017-10-20T03:32:06.822Z,0
2017-10-20T03:33:16.128Z,0
2017-10-20T03:34:25.120Z,0
2017-10-20T03:35:34.154Z,0
2017-10-20T03:36:42.808Z,0
2017-10-20T03:37:52.782Z,0
2017-10-20T03:39:02.089Z,0
2017-10-20T03:40:12.075Z,0
2017-10-20T03:41:21.449Z,0
2017-10-20T03:42:31.079Z,0
2017-10-20T03:43:40.409Z,0
2017-10-20T03:44:49.058Z,0
2017-10-20T03:45:58.715Z,0
2017-10-20T03:47:08.023Z,0
2017-10-20T03:48:17.324Z,0
2017-10-20T03:49:25.981Z,0
2017-10-20T03:50:34.639Z,0
2017-10-20T03:51:44.295Z,0
2017-10-20T03:52:53.638Z,0
2017-10-20T03:54:02.621Z,0
2017-10-20T03:55:11.612Z,0
2017-10-20T03:56:21.354Z,0
2017-10-20T03:57:30.975Z,0
2017-10-20T03:58:39.659Z,0
2017-10-20T03:59:48.633Z,0
2017-10-20T04:00:57.635Z,0
2017-10-20T04:02:06.713Z,0
2017-10-20T04:03:15.699Z,0
2017-10-20T04:04:25.690Z,0
2017-10-20T04:05:34.678Z,0
2017-10-20T04:06:43.689Z,0
2017-10-20T04:07:53.001Z,0
2017-10-20T04:09:01.994Z,0
2017-10-20T04:10:11.306Z,0
2017-10-20T04:11:20.623Z,0
2017-10-20T04:12:29.628Z,0
2017-10-20T04:13:39.053Z,0
2017-10-20T04:14:48.367Z,0
2017-10-20T04:15:57.365Z,0
2017-10-20T04:17:06.733Z,0
2017-10-20T04:18:16.040Z,0
2017-10-20T04:19:25.071Z,0
2017-10-20T04:20:34.058Z,0
2017-10-20T04:21:42.743Z,0
2017-10-20T04:22:52.083Z,0
2017-10-20T04:24:01.073Z,0
2017-10-20T04:25:10.152Z,0
2017-10-20T04:26:19.187Z,0
2017-10-20T04:27:28.529Z,0
2017-10-20T04:28:37.533Z,0
2017-10-20T04:29:46.537Z,0
2017-10-20T04:30:55.207Z,0
2017-10-20T04:32:04.253Z,0
2017-10-20T04:33:13.254Z,0
2017-10-20T04:34:21.900Z,0
2017-10-20T04:35:30.881Z,0
2017-10-20T04:36:39.964Z,0
2017-10-20T04:37:49.608Z,0
2017-10-20T04:38:58.918Z,0
2017-10-20T04:40:08.238Z,0
2017-10-20T04:41:16.905Z,0
2017-10-20T04:42:26.312Z,0
2017-10-20T04:43:35.960Z,0
2017-10-20T04:44:45.500Z,0
2017-10-20T04:45:54.163Z,0
2017-10-20T04:47:03.520Z,0
2017-10-20T04:48:12.207Z,0
2017-10-20T04:49:20.868Z,0
2017-10-20T04:50:29.542Z,0
2017-10-20T04:51:38.552Z,0
2017-10-20T04:52:47.554Z,0
2017-10-20T04:53:56.885Z,0
2017-10-20T04:55:05.580Z,0
2017-10-20T04:56:14.259Z,0
2017-10-20T04:57:23.571Z,0
2017-10-20T04:58:32.221Z,0
2017-10-20T04:59:41.531Z,0
2017-10-20T05:00:51.183Z,0
2017-10-20T05:02:00.836Z,0
2017-10-20T05:03:10.164Z,0
2017-10-20T05:04:19.811Z,0
2017-10-20T05:05:28.821Z,0
2017-10-20T05:06:37.918Z,0
2017-10-20T05:07:47.221Z,0
2017-10-20T05:08:56.884Z,0
2017-10-20T05:10:05.533Z,0
2017-10-20T05:11:14.939Z,0
2017-10-20T05:12:24.418Z,0
2017-10-20T05:13:33.422Z,0
2017-10-20T05:14:42.780Z,0
2017-10-20T05:15:51.763Z,0
2017-10-20T05:17:00.738Z,0
2017-10-20T05:18:09.432Z,0
2017-10-20T05:19:18.769Z,0
2017-10-20T05:20:27.827Z,0
2017-10-20T05:21:36.923Z,0
2017-10-20T05:22:45.657Z,0
2017-10-20T05:23:55.403Z,0
2017-10-20T05:25:04.596Z,0
2017-10-20T05:26:13.798Z,0
2017-10-20T05:27:23.197Z,0
2017-10-20T05:28:32.349Z,0
2017-10-20T05:29:41.408Z,0
2017-10-20T05:30:50.899Z,0
2017-10-20T05:32:00.880Z,0
2017-10-20T05:33:09.941Z,0
2017-10-20T05:34:18.959Z,0
2017-10-20T05:35:29.019Z,0
2017-10-20T05:36:38.730Z,0
2017-10-20T05:37:47.734Z,0
2017-10-20T05:38:56.804Z,0
2017-10-20T05:40:05.882Z,0
2017-10-20T05:41:15.196Z,0
2017-10-20T05:42:23.942Z,0
2017-10-20T05:43:33.041Z,0
2017-10-20T05:44:42.020Z,0
2017-10-20T05:45:50.709Z,0
2017-10-20T05:47:00.050Z,0
2017-10-20T05:48:09.042Z,0
2017-10-20T05:49:18.362Z,0
2017-10-20T05:50:27.348Z,0
2017-10-20T05:51:36.015Z,0
2017-10-20T05:52:45.681Z,0
2017-10-20T05:53:54.518Z,0
2017-10-20T05:55:03.844Z,0
2017-10-20T05:56:12.552Z,0
2017-10-20T05:57:21.647Z,0
2017-10-20T05:58:30.976Z,0
2017-10-20T05:59:39.967Z,0
2017-10-20T06:00:49.721Z,0
2017-10-20T06:01:59.497Z,0
2017-10-20T06:03:08.649Z,0
2017-10-20T06:04:17.617Z,0
2017-10-20T06:05:27.278Z,0
2017-10-20T06:06:36.327Z,0
2017-10-20T06:07:45.642Z,0
2017-10-20T06:08:54.318Z,0
2017-10-20T06:10:03.664Z,0
2017-10-20T06:11:12.358Z,0
2017-10-20T06:12:22.002Z,0
2017-10-20T06:13:31.020Z,0
2017-10-20T06:14:40.039Z,0
2017-10-20T06:15:49.362Z,0
2017-10-20T06:16:58.687Z,0
2017-10-20T06:18:07.676Z,0
2017-10-20T06:19:17.003Z,0
2017-10-20T06:20:26.010Z,0
2017-10-20T06:21:35.330Z,0
2017-10-20T06:22:44.471Z,0
2017-10-20T06:23:53.513Z,0
2017-10-20T06:25:03.187Z,0
2017-10-20T06:26:12.305Z,0
2017-10-20T06:27:21.305Z,0
2017-10-20T06:28:30.672Z,0
2017-10-20T06:29:40.328Z,0
2017-10-20T06:30:50.035Z,0
2017-10-20T06:31:58.763Z,0
2017-10-20T06:33:07.811Z,0
2017-10-20T06:34:17.172Z,0
2017-10-20T06:35:26.522Z,0
2017-10-20T06:36:35.549Z,0
2017-10-20T06:37:44.621Z,0
2017-10-20T06:38:53.636Z,0
2017-10-20T06:40:02.303Z,0
2017-10-20T06:41:11.006Z,0
2017-10-20T06:42:21.017Z,0
2017-10-20T06:43:30.077Z,0
2017-10-20T06:44:39.079Z,0
2017-10-20T06:45:47.751Z,0
2017-10-20T06:46:56.432Z,0
2017-10-20T06:48:05.522Z,0
2017-10-20T06:49:14.887Z,0
2017-10-20T06:50:24.250Z,0
2017-10-20T06:51:33.356Z,0
2017-10-20T06:52:42.356Z,5
2017-10-20T06:53:51.360Z,5
2017-10-20T06:55:00.686Z,5
2017-10-20T06:56:09.683Z,10
2017-10-20T06:57:18.697Z,10
2017-10-20T06:58:28.037Z,10
2017-10-20T06:59:37.565Z,10
2017-10-20T07:00:47.245Z,15
2017-10-20T07:01:56.258Z,15
2017-10-20T07:03:05.318Z,10
2017-10-20T07:04:14.342Z,10
2017-10-20T07:05:24.419Z,10
2017-10-20T07:06:34.200Z,10
2017-10-20T07:07:43.280Z,15
2017-10-20T07:08:51.950Z,15
2017-10-20T07:10:01.355Z,10
2017-10-20T07:11:10.372Z,10
2017-10-20T07:12:19.729Z,10
2017-10-20T07:13:28.739Z,10
2017-10-20T07:14:38.122Z,10
2017-10-20T07:15:46.858Z,10
2017-10-20T07:16:55.897Z,15
2017-10-20T07:18:04.554Z,15
2017-10-20T07:19:13.881Z,15
2017-10-20T07:20:22.888Z,15
2017-10-20T07:21:32.214Z,15
2017-10-20T07:22:41.286Z,10
2017-10-20T07:23:50.630Z,10
2017-10-20T07:25:00.689Z,10
2017-10-20T07:26:09.370Z,5
2017-10-20T07:27:18.471Z,5
2017-10-20T07:28:27.810Z,5
2017-10-20T07:29:36.855Z,5
2017-10-20T07:30:46.552Z,5
2017-10-20T07:31:55.741Z,5
2017-10-20T07:33:05.087Z,5
2017-10-20T07:34:14.126Z,5
2017-10-20T07:35:23.869Z,5
2017-10-20T07:36:33.343Z,5
2017-10-20T07:37:42.010Z,5
2017-10-20T07:38:51.687Z,5
2017-10-20T07:40:00.742Z,5
2017-10-20T07:41:10.172Z,0
2017-10-20T07:42:18.866Z,0
2017-10-20T07:43:27.551Z,0
2017-10-20T07:44:37.228Z,0
2017-10-20T07:45:46.582Z,0
2017-10-20T07:46:55.589Z,0
2017-10-20T07:48:04.589Z,0
2017-10-20T07:49:13.939Z,0
2017-10-20T07:50:23.593Z,0
2017-10-20T07:51:32.942Z,0
2017-10-20T07:52:42.311Z,5
2017-10-20T07:53:51.645Z,0
2017-10-20T07:55:00.687Z,0
2017-10-20T07:56:10.024Z,0
2017-10-20T07:57:19.042Z,0
2017-10-20T07:58:27.724Z,0
2017-10-20T07:59:36.734Z,0
2017-10-20T08:00:45.422Z,0
2017-10-20T08:01:54.420Z,0
2017-10-20T08:03:03.138Z,0
2017-10-20T08:04:12.138Z,0
2017-10-20T08:05:21.191Z,0
2017-10-20T08:06:30.554Z,0
2017-10-20T08:07:39.304Z,5
2017-10-20T08:08:48.104Z,0
2017-10-20T08:09:57.168Z,5
2017-10-20T08:11:06.840Z,0
2017-10-20T08:12:16.179Z,5
2017-10-20T08:13:25.199Z,5
2017-10-20T08:14:34.910Z,5
2017-10-20T08:15:43.621Z,5
2017-10-20T08:16:53.047Z,5
2017-10-20T08:18:02.073Z,5
2017-10-20T08:19:11.435Z,5
2017-10-20T08:20:21.183Z,5
2017-10-20T08:21:31.548Z,5
2017-10-20T08:22:41.221Z,5
2017-10-20T08:23:49.914Z,5
2017-10-20T08:24:58.946Z,0
2017-10-20T08:26:07.634Z,0
2017-10-20T08:27:17.193Z,0
2017-10-20T08:28:25.891Z,0
2017-10-20T08:29:35.552Z,5
2017-10-20T08:30:44.222Z,5
2017-10-20T08:31:52.919Z,0
2017-10-20T08:33:01.912Z,0
2017-10-20T08:34:10.905Z,0
2017-10-20T08:35:20.223Z,0
2017-10-20T08:36:29.559Z,5
2017-10-20T08:37:38.256Z,5
2017-10-20T08:38:47.596Z,5
2017-10-20T08:39:56.252Z,5
2017-10-20T08:41:04.912Z,5
2017-10-20T08:42:13.576Z,10
2017-10-20T08:43:22.924Z,10
2017-10-20T08:44:31.913Z,10
2017-10-20T08:45:41.240Z,5
2017-10-20T08:46:50.241Z,5
2017-10-20T08:47:58.979Z,5
2017-10-20T08:49:08.633Z,5
2017-10-20T08:50:17.662Z,0
2017-10-20T08:51:26.977Z,0
2017-10-20T08:52:35.658Z,0
2017-10-20T08:53:44.372Z,0
2017-10-20T08:54:53.712Z,0
2017-10-20T08:56:03.049Z,0
2017-10-20T08:57:11.714Z,0
2017-10-20T08:58:21.059Z,5
2017-10-20T08:59:30.366Z,5
2017-10-20T09:00:39.728Z,5
2017-10-20T09:01:48.731Z,5
2017-10-20T09:02:58.077Z,5
2017-10-20T09:04:07.087Z,5
2017-10-20T09:05:15.793Z,5
2017-10-20T09:06:25.123Z,10
2017-10-20T09:07:34.132Z,10
2017-10-20T09:08:43.475Z,10
2017-10-20T09:09:52.833Z,10
2017-10-20T09:11:01.545Z,10
2017-10-20T09:12:10.608Z,10
2017-10-20T09:13:19.617Z,10
2017-10-20T09:14:28.941Z,15
2017-10-20T09:15:37.651Z,10
2017-10-20T09:16:47.696Z,10
2017-10-20T09:17:56.706Z,10
2017-10-20T09:19:05.382Z,10
2017-10-20T09:20:14.758Z,10
2017-10-20T09:21:23.441Z,10
2017-10-20T09:22:32.793Z,15
2017-10-20T09:23:42.543Z,20
2017-10-20T09:24:51.213Z,25
2017-10-20T09:26:00.248Z,20
2017-10-20T09:27:08.994Z,25
2017-10-20T09:28:18.384Z,25
2017-10-20T09:29:27.711Z,25
2017-10-20T09:30:36.390Z,30
2017-10-20T09:31:45.397Z,30
2017-10-20T09:32:54.740Z,35
2017-10-20T09:34:04.064Z,30
2017-10-20T09:35:13.423Z,25
2017-10-20T09:36:22.433Z,25
2017-10-20T09:37:31.751Z,20
2017-10-20T09:38:40.756Z,25
2017-10-20T09:39:50.104Z,25
2017-10-20T09:40:59.440Z,30
2017-10-20T09:42:08.550Z,30
2017-10-20T09:43:17.205Z,30
2017-10-20T09:44:26.221Z,15
2017-10-20T09:45:35.268Z,20
2017-10-20T09:46:44.294Z,20
2017-10-20T09:47:53.306Z,15
2017-10-20T09:49:02.322Z,20
2017-10-20T09:50:11.667Z,20
2017-10-20T09:51:20.691Z,20
2017-10-20T09:52:29.402Z,20
2017-10-20T09:53:38.417Z,20
2017-10-20T09:54:47.111Z,15
2017-10-20T09:55:56.149Z,15
2017-10-20T09:57:05.170Z,15
2017-10-20T09:58:14.186Z,15
2017-10-20T09:59:22.907Z,15
2017-10-20T10:00:31.895Z,15
2017-10-20T10:01:40.911Z,15
2017-10-20T10:02:50.258Z,15
2017-10-20T10:03:58.951Z,15
2017-10-20T10:05:08.603Z,15
2017-10-20T10:06:17.921Z,15
2017-10-20T10:07:27.599Z,15
2017-10-20T10:08:36.273Z,15
2017-10-20T10:09:45.664Z,15
2017-10-20T10:10:54.664Z,15
2017-10-20T10:12:03.346Z,15
2017-10-20T10:13:13.006Z,15
2017-10-20T10:14:22.080Z,10
2017-10-20T10:15:31.074Z,10
2017-10-20T10:16:40.751Z,15
2017-10-20T10:17:49.770Z,15
2017-10-20T10:18:58.455Z,15
2017-10-20T10:20:07.166Z,20
2017-10-20T10:21:16.154Z,15
2017-10-20T10:22:25.799Z,20
2017-10-20T10:23:35.170Z,25
2017-10-20T10:24:44.553Z,20
2017-10-20T10:25:53.555Z,25
2017-10-20T10:27:02.590Z,25
2017-10-20T10:28:11.602Z,15
2017-10-20T10:29:20.286Z,15
2017-10-20T10:30:29.274Z,20
2017-10-20T10:31:38.356Z,20
2017-10-20T10:32:47.349Z,20
2017-10-20T10:33:56.352Z,20
2017-10-20T10:35:05.048Z,15
2017-10-20T10:36:14.065Z,15
2017-10-20T10:37:23.439Z,20
2017-10-20T10:38:32.096Z,15
2017-10-20T10:39:41.111Z,20
2017-10-20T10:40:50.463Z,25
2017-10-20T10:41:59.474Z,30
2017-10-20T10:43:08.505Z,25
2017-10-20T10:44:17.209Z,20
2017-10-20T10:45:26.211Z,15
2017-10-20T10:46:34.893Z,15
2017-10-20T10:47:43.560Z,20
2017-10-20T10:48:52.892Z,30
2017-10-20T10:50:02.273Z,25
2017-10-20T10:51:11.699Z,15
2017-10-20T10:52:20.769Z,20
2017-10-20T10:53:29.461Z,20
2017-10-20T10:54:38.122Z,15
2017-10-20T10:55:47.475Z,15
2017-10-20T10:56:56.572Z,20
2017-10-20T10:58:05.574Z,20
2017-10-20T10:59:14.915Z,20
2017-10-20T11:00:23.906Z,20
2017-10-20T11:01:32.907Z,15
2017-10-20T11:02:41.929Z,15
2017-10-20T11:03:50.660Z,10
2017-10-20T11:05:00.020Z,10
2017-10-20T11:06:09.021Z,10
2017-10-20T11:07:18.034Z,15
2017-10-20T11:08:27.407Z,15
2017-10-20T11:09:36.422Z,15
2017-10-20T11:10:45.437Z,15
2017-10-20T11:11:54.153Z,15
2017-10-20T11:13:03.833Z,15
2017-10-20T11:14:13.268Z,15
2017-10-20T11:15:21.948Z,15
2017-10-20T11:16:30.951Z,15
2017-10-20T11:17:39.649Z,15
2017-10-20T11:18:48.360Z,20
2017-10-20T11:19:57.037Z,15
2017-10-20T11:21:06.367Z,20
2017-10-20T11:22:15.372Z,25
2017-10-20T11:23:24.694Z,25
2017-10-20T11:24:33.387Z,20
2017-10-20T11:25:42.786Z,20
2017-10-20T11:26:51.488Z,20
2017-10-20T11:28:00.812Z,15
2017-10-20T11:29:09.638Z,15
2017-10-20T11:30:19.336Z,15
2017-10-20T11:31:28.392Z,15
2017-10-20T11:32:38.063Z,15
2017-10-20T11:33:47.435Z,20
2017-10-20T11:34:56.776Z,15
2017-10-20T11:36:05.796Z,15
2017-10-20T11:37:14.805Z,15
2017-10-20T11:38:24.223Z,10
2017-10-20T11:39:33.885Z,10
2017-10-20T11:40:43.195Z,10
2017-10-20T11:41:52.207Z,15
2017-10-20T11:43:01.539Z,10
2017-10-20T11:44:10.865Z,10
2017-10-20T11:45:20.542Z,15
2017-10-20T11:46:29.539Z,15
2017-10-20T11:47:38.537Z,15
2017-10-20T11:48:47.865Z,10
2017-10-20T11:49:57.886Z,10
2017-10-20T11:51:06.882Z,10
2017-10-20T11:52:16.211Z,10
2017-10-20T11:53:25.555Z,15
2017-10-20T11:54:34.917Z,20
2017-10-20T11:55:44.241Z,15
2017-10-20T11:56:53.260Z,20
2017-10-20T11:58:02.268Z,20
2017-10-20T11:59:11.931Z,15
2017-10-20T12:00:21.288Z,20
2017-10-20T12:01:30.664Z,20
2017-10-20T12:02:39.669Z,15
2017-10-20T12:03:48.673Z,10
2017-10-20T12:04:58.026Z,15
2017-10-20T12:06:07.035Z,15
2017-10-20T12:07:16.681Z,20
2017-10-20T12:08:26.495Z,15
2017-10-20T12:09:35.524Z,15
2017-10-20T12:10:44.213Z,15
2017-10-20T12:11:52.948Z,20
2017-10-20T12:13:02.323Z,25
2017-10-20T12:14:11.676Z,15
2017-10-20T12:15:20.344Z,15
2017-10-20T12:16:29.744Z,20
2017-10-20T12:17:38.410Z,15
2017-10-20T12:18:47.750Z,10
2017-10-20T12:19:57.407Z,10
2017-10-20T12:21:06.426Z,15
2017-10-20T12:22:15.090Z,15
2017-10-20T12:23:24.407Z,15
2017-10-20T12:24:33.400Z,15
2017-10-20T12:25:43.445Z,25
2017-10-20T12:26:52.178Z,25
2017-10-20T12:28:01.505Z,15
2017-10-20T12:29:10.494Z,10
2017-10-20T12:30:19.508Z,10
2017-10-20T12:31:28.205Z,15
2017-10-20T12:32:37.219Z,20
2017-10-20T12:33:46.563Z,15
2017-10-20T12:34:55.231Z,15
2017-10-20T12:36:04.581Z,15
2017-10-20T12:37:13.401Z,20
2017-10-20T12:38:22.436Z,15
2017-10-20T12:39:31.117Z,15
2017-10-20T12:40:40.124Z,20
2017-10-20T12:41:49.438Z,20
2017-10-20T12:42:58.125Z,20
2017-10-20T12:44:07.112Z,20
2017-10-20T12:45:16.140Z,25
2017-10-20T12:46:25.517Z,25
2017-10-20T12:47:34.856Z,20
2017-10-20T12:48:43.551Z,20
2017-10-20T12:49:52.270Z,25
2017-10-20T12:51:01.976Z,30
2017-10-20T12:52:10.983Z,20
2017-10-20T12:53:20.317Z,20
2017-10-20T12:54:29.330Z,20
2017-10-20T12:55:38.716Z,20
2017-10-20T12:56:47.748Z,25
2017-10-20T12:57:56.765Z,25
2017-10-20T12:59:05.794Z,25
2017-10-20T13:00:15.120Z,25
2017-10-20T13:01:24.153Z,25
2017-10-20T13:02:33.492Z,20
2017-10-20T13:03:42.515Z,20
2017-10-20T13:04:51.540Z,15
2017-10-20T13:06:00.591Z,20
2017-10-20T13:07:09.941Z,15
2017-10-20T13:08:19.417Z,15
2017-10-20T13:09:28.429Z,15
2017-10-20T13:10:37.828Z,15
2017-10-20T13:11:46.508Z,20
2017-10-20T13:12:55.832Z,20
2017-10-20T13:14:04.861Z,20
2017-10-20T13:15:13.685Z,20
2017-10-20T13:16:22.395Z,25
2017-10-20T13:17:31.406Z,30
2017-10-20T13:18:40.080Z,30
2017-10-20T13:19:49.074Z,25
2017-10-20T13:20:58.208Z,25
2017-10-20T13:22:07.556Z,25
2017-10-20T13:23:16.537Z,20
2017-10-20T13:24:26.219Z,20
2017-10-20T13:25:35.541Z,20
2017-10-20T13:26:44.540Z,25
2017-10-20T13:27:53.540Z,20
2017-10-20T13:29:02.883Z,20
2017-10-20T13:30:11.570Z,25
2017-10-20T13:31:20.314Z,20
2017-10-20T13:32:29.013Z,20
2017-10-20T13:33:38.369Z,20
2017-10-20T13:34:47.084Z,20
2017-10-20T13:35:56.421Z,15
2017-10-20T13:37:05.445Z,15
2017-10-20T13:38:14.770Z,15
2017-10-20T13:39:24.165Z,15
2017-10-20T13:40:33.494Z,15
2017-10-20T13:41:42.524Z,10
2017-10-20T13:42:51.535Z,10
2017-10-20T13:44:00.558Z,15
2017-10-20T13:45:09.242Z,10
2017-10-20T13:46:18.748Z,5
2017-10-20T13:47:27.808Z,5
2017-10-20T13:48:37.155Z,5
2017-10-20T13:49:46.824Z,10
2017-10-20T13:50:56.226Z,10
2017-10-20T13:52:04.913Z,5
2017-10-20T13:53:13.929Z,5
2017-10-20T13:54:23.619Z,5
2017-10-20T13:55:32.356Z,10
2017-10-20T13:56:42.032Z,10
2017-10-20T13:57:51.357Z,10
2017-10-20T13:59:00.357Z,10
2017-10-20T14:00:09.716Z,10
2017-10-20T14:01:19.065Z,10
2017-10-20T14:02:28.154Z,10
2017-10-20T14:03:37.497Z,5
2017-10-20T14:04:46.182Z,10
2017-10-20T14:05:55.509Z,10
2017-10-20T14:07:05.270Z,10
2017-10-20T14:08:13.940Z,10
2017-10-20T14:09:22.954Z,10
2017-10-20T14:10:31.636Z,10
2017-10-20T14:11:40.988Z,10
2017-10-20T14:12:50.656Z,15
2017-10-20T14:13:59.685Z,15
2017-10-20T14:15:08.340Z,15
2017-10-20T14:16:17.346Z,20
2017-10-20T14:17:26.039Z,20
2017-10-20T14:18:34.716Z,15
2017-10-20T14:19:43.968Z,15
2017-10-20T14:20:53.017Z,15
2017-10-20T14:22:02.358Z,10
2017-10-20T14:23:11.391Z,10
2017-10-20T14:24:20.750Z,10
2017-10-20T14:25:29.795Z,10
2017-10-20T14:26:38.508Z,10
2017-10-20T14:27:48.241Z,10
2017-10-20T14:28:56.917Z,10
2017-10-20T14:30:06.273Z,10
2017-10-20T14:31:14.979Z,10
2017-10-20T14:32:24.647Z,10
2017-10-20T14:33:34.334Z,10
2017-10-20T14:34:44.012Z,10
2017-10-20T14:35:53.030Z,10
2017-10-20T14:37:01.732Z,10
2017-10-20T14:38:11.172Z,10
2017-10-20T14:39:19.940Z,10
2017-10-20T14:40:28.973Z,10
2017-10-20T14:41:38.619Z,10
2017-10-20T14:42:47.321Z,10
2017-10-20T14:43:56.039Z,10
2017-10-20T14:45:05.069Z,5
2017-10-20T14:46:14.408Z,10
2017-10-20T14:47:23.749Z,10
2017-10-20T14:48:33.432Z,10
2017-10-20T14:49:42.760Z,10
2017-10-20T14:50:51.756Z,5
2017-10-20T14:52:01.106Z,5
2017-10-20T14:53:10.135Z,5
2017-10-20T14:54:18.832Z,5
2017-10-20T14:55:28.192Z,10
2017-10-20T14:56:37.555Z,10
2017-10-20T14:57:46.910Z,5
2017-10-20T14:58:55.684Z,10
2017-10-20T15:00:05.047Z,10
2017-10-20T15:01:14.443Z,5
2017-10-20T15:02:23.784Z,5
2017-10-20T15:03:33.099Z,5
2017-10-20T15:04:42.759Z,5
2017-10-20T15:05:52.526Z,5
2017-10-20T15:07:01.191Z,5
2017-10-20T15:08:10.853Z,5
2017-10-20T15:09:19.872Z,5
2017-10-20T15:10:28.910Z,5
2017-10-20T15:11:37.975Z,5
2017-10-20T15:12:46.673Z,5
2017-10-20T15:13:55.705Z,5
2017-10-20T15:15:05.392Z,5
2017-10-20T15:16:15.052Z,5
2017-10-20T15:17:24.065Z,0
2017-10-20T15:18:33.402Z,0
2017-10-20T15:19:42.417Z,0
2017-10-20T15:20:52.408Z,5
2017-10-20T15:22:01.758Z,5
2017-10-20T15:23:11.722Z,5
2017-10-20T15:24:20.438Z,5
2017-10-20T15:25:29.768Z,5
2017-10-20T15:26:38.462Z,5
2017-10-20T15:27:48.180Z,5
2017-10-20T15:28:57.915Z,5
2017-10-20T15:30:06.680Z,5
2017-10-20T15:31:15.363Z,5
2017-10-20T15:32:24.098Z,5
2017-10-20T15:33:33.193Z,5
2017-10-20T15:34:42.838Z,0
2017-10-20T15:35:51.847Z,0
2017-10-20T15:37:00.923Z,0
2017-10-20T15:38:09.599Z,0
2017-10-20T15:39:19.416Z,0
2017-10-20T15:40:28.128Z,0
2017-10-20T15:41:37.813Z,0
2017-10-20T15:42:46.796Z,0
2017-10-20T15:43:55.482Z,0
2017-10-20T15:45:04.837Z,0
2017-10-20T15:46:13.514Z,0
2017-10-20T15:47:23.236Z,0
2017-10-20T15:48:32.587Z,0
2017-10-20T15:49:41.913Z,0
2017-10-20T15:50:51.638Z,0
2017-10-20T15:52:00.656Z,0
2017-10-20T15:53:09.664Z,0
2017-10-20T15:54:19.058Z,0
2017-10-20T15:55:27.796Z,0
2017-10-20T15:56:36.886Z,0
2017-10-20T15:57:45.877Z,0
2017-10-20T15:58:55.199Z,0
2017-10-20T16:00:04.183Z,0
2017-10-20T16:01:13.206Z,0
2017-10-20T16:02:22.353Z,0
2017-10-20T16:03:31.696Z,0
2017-10-20T16:04:40.703Z,0
2017-10-20T16:05:49.368Z,0
2017-10-20T16:06:58.043Z,0
2017-10-20T16:08:06.806Z,0
2017-10-20T16:09:16.148Z,0
2017-10-20T16:10:25.138Z,0
2017-10-20T16:11:34.150Z,0
2017-10-20T16:12:43.728Z,0
2017-10-20T16:13:53.141Z,0
2017-10-20T16:15:02.139Z,0
2017-10-20T16:16:10.813Z,0
2017-10-20T16:17:19.508Z,0
2017-10-20T16:18:28.573Z,0
2017-10-20T16:19:37.591Z,0
2017-10-20T16:20:47.372Z,0
2017-10-20T16:21:56.085Z,0
2017-10-20T16:23:05.074Z,0
2017-10-20T16:24:14.755Z,0
2017-10-20T16:25:23.753Z,0
2017-10-20T16:26:32.437Z,0
2017-10-20T16:27:42.081Z,0
2017-10-20T16:28:51.416Z,0
2017-10-20T16:30:00.751Z,0
2017-10-20T16:31:10.095Z,0
2017-10-20T16:32:19.413Z,0
2017-10-20T16:33:28.754Z,0
2017-10-20T16:34:37.419Z,0
2017-10-20T16:35:46.786Z,0
2017-10-20T16:36:56.442Z,0
2017-10-20T16:38:05.766Z,0
2017-10-20T16:39:14.879Z,0
2017-10-20T16:40:24.198Z,0
2017-10-20T16:41:33.182Z,0
2017-10-20T16:42:41.901Z,0
2017-10-20T16:43:50.902Z,0
2017-10-20T16:44:59.907Z,0
2017-10-20T16:46:08.574Z,0
2017-10-20T16:47:17.556Z,0
2017-10-20T16:48:27.316Z,0